Altus, Oklahoma
Current Conditions -  °F | °C
As of 11:58 PM on Wednesday 28 Jan 2015 (Local Time) from KLTS Reporting Station
Clear Clear  
Wind Chill: 55°   Ceiling: Unl
Heat Index: 55°   Visibility: 10mi
Dew Point: 36°   Wind: 12mph
Humidity: 48%   Direction: 310°NW
Pressure: 30.08"   Gusts: NA
Location:  34.64°N, 99.33°W
Report Text: KLTS 290558Z 31010KT 10SM CLR 13/02 A3008 RMK AO2A SLP178 T01300021 10214 20109 402880017 52024 $
Loading
Personal Weather Stations






























Interactive Weather Map New forecast layout! Learn more

10-Day Weather Forecast

Advertisements
Track Severe Weather on mobile